Time,TemperatureF,DewpointF,PressureIn,WindDirection,WindDirectionDegrees,WindSpeedMPH,WindSpeedGustMPH,Humidity,HourlyPrecipIn,Conditions,Clouds,dailyrainin,SoftwareType,DateUTC
2013-10-08 00:00:00,81.3,78.8,29.92,North,7,5.0,8.0,92,0.00,RA,,0.00,WeatherDisplay:10.37,2013-10-08 06:00:00,
2013-10-08 00:15:00,81.1,78.6,29.92,North,10,5.0,6.0,92,0.00,CLR,,0.00,WeatherDisplay:10.37,2013-10-08 06:15:00,
2013-10-08 00:30:00,81.1,78.6,29.92,North,9,5.0,6.0,92,0.00,CLR,,0.00,WeatherDisplay:10.37,2013-10-08 06:30:00,
2013-10-08 00:45:00,81.0,78.5,29.92,North,5,6.0,8.0,92,0.00,CLR,,0.00,WeatherDisplay:10.37,2013-10-08 06:45:00,
2013-10-08 01:00:00,81.2,78.3,29.91,North,359,5.0,7.0,91,0.00,CLR,,0.00,WeatherDisplay:10.37,2013-10-08 07:00:00,
2013-10-08 01:15:00,81.4,78.5,29.91,North,6,2.0,7.0,91,0.01,RA,,0.01,WeatherDisplay:10.37,2013-10-08 07:15:00,
2013-10-08 01:30:00,80.9,78.4,29.90,NNE,19,3.0,7.0,92,0.00,CLR,,0.01,WeatherDisplay:10.37,2013-10-08 07:30:00,
2013-10-08 01:45:00,80.6,78.1,29.90,NNE,17,3.0,8.0,92,0.00,CLR,,0.01,WeatherDisplay:10.37,2013-10-08 07:45:00,
2013-10-08 02:00:00,79.1,75.9,29.92,SE,127,10.0,14.0,90,0.02,RA,,0.03,WeatherDisplay:10.37,2013-10-08 08:00:00,
2013-10-08 02:15:00,77.1,74.3,29.90,SSE,155,7.0,15.0,91,0.02,RA,,0.05,WeatherDisplay:10.37,2013-10-08 08:15:00,
2013-10-08 02:30:00,76.1,73.6,29.90,SE,137,2.0,9.0,92,0.01,CLR,,0.06,WeatherDisplay:10.37,2013-10-08 08:30:00,
2013-10-08 02:45:00,76.3,74.1,29.90,South,182,1.0,3.0,93,0.01,,,0.07,WeatherDisplay:10.37,2013-10-08 08:45:00,
2013-10-08 03:00:00,76.0,73.9,29.90,SSW,202,3.0,6.0,93,0.00,CLR,,0.07,WeatherDisplay:10.37,2013-10-08 09:00:00,
2013-10-08 03:15:00,75.9,73.7,29.89,WSW,254,0.0,6.0,93,0.00,CLR,,0.07,WeatherDisplay:10.37,2013-10-08 09:15:00,
2013-10-08 03:30:00,76.1,74.2,29.89,WSW,254,0.0,2.0,94,0.00,CLR,,0.07,WeatherDisplay:10.37,2013-10-08 09:30:00,
2013-10-08 03:45:00,76.0,74.1,29.89,WSW,254,2.0,2.0,94,0.00,CLR,,0.07,WeatherDisplay:10.37,2013-10-08 09:45:00,
2013-10-08 04:00:00,76.3,74.4,29.90,WSW,254,2.0,3.0,94,0.00,CLR,,0.07,WeatherDisplay:10.37,2013-10-08 10:00:00,
2013-10-08 04:15:00,76.8,74.9,29.89,NW,321,1.0,3.0,94,0.01,RA,,0.08,WeatherDisplay:10.37,2013-10-08 10:15:00,
2013-10-08 04:30:00,77.2,75.3,29.91,NNW,333,2.0,3.0,94,0.00,CLR,,0.08,WeatherDisplay:10.37,2013-10-08 10:30:00,
2013-10-08 04:45:00,77.3,75.1,29.92,NW,312,2.0,6.0,93,0.00,CLR,,0.08,WeatherDisplay:10.37,2013-10-08 10:45:00,
2013-10-08 05:00:00,77.4,75.2,29.92,NW,316,2.0,3.0,93,0.00,CLR,,0.08,WeatherDisplay:10.37,2013-10-08 11:00:00,
2013-10-08 05:15:00,77.8,75.6,29.93,NW,312,2.0,6.0,93,0.00,CLR,,0.08,WeatherDisplay:10.37,2013-10-08 11:15:00,
2013-10-08 05:30:00,77.7,74.9,29.93,East,93,9.0,15.0,91,0.00,CLR,,0.08,WeatherDisplay:10.37,2013-10-08 11:30:00,
2013-10-08 05:45:00,76.9,74.7,29.95,SSE,156,14.0,24.0,93,0.07,RA,,0.15,WeatherDisplay:10.37,2013-10-08 11:45:00,
2013-10-08 06:00:00,75.8,73.9,29.96,SSW,194,6.0,25.0,94,0.12,RA,,0.27,WeatherDisplay:10.37,2013-10-08 12:00:00,
2013-10-08 06:15:00,75.2,73.6,29.96,SSW,204,2.0,10.0,95,0.01,RA,,0.28,WeatherDisplay:10.37,2013-10-08 12:15:00,
2013-10-08 06:30:00,74.5,73.0,29.96,SW,229,3.0,6.0,95,0.01,RA,,0.29,WeatherDisplay:10.37,2013-10-08 12:30:00,
2013-10-08 06:45:00,74.6,73.1,29.96,WSW,241,1.0,3.0,95,0.00,CLR,,0.29,WeatherDisplay:10.37,2013-10-08 12:45:00,
2013-10-08 07:00:00,75.2,73.7,29.97,NNW,336,1.0,6.0,95,0.01,RA,,0.30,WeatherDisplay:10.37,2013-10-08 13:00:00,
2013-10-08 07:15:00,75.2,73.7,29.97,NW,324,2.0,5.0,95,0.01,,,0.31,WeatherDisplay:10.37,2013-10-08 13:15:00,
2013-10-08 07:30:00,75.4,73.9,29.97,NW,321,3.0,5.0,95,0.01,RA,,0.33,WeatherDisplay:10.37,2013-10-08 13:30:00,
2013-10-08 07:46:00,75.6,74.1,29.96,WNW,301,5.0,7.0,95,0.02,RA,,0.35,WeatherDisplay:10.37,2013-10-08 13:46:00,
2013-10-08 08:00:00,75.8,74.6,29.96,NW,306,3.0,8.0,96,0.01,RA,,0.36,WeatherDisplay:10.37,2013-10-08 14:00:00,
2013-10-08 08:15:00,76.0,74.8,29.96,NW,305,3.0,7.0,96,0.02,RA,,0.38,WeatherDisplay:10.37,2013-10-08 14:15:00,
2013-10-08 08:30:00,76.2,74.9,29.97,NW,324,3.0,7.0,96,0.01,RA,,0.39,WeatherDisplay:10.37,2013-10-08 14:30:00,
2013-10-08 08:45:00,76.2,75.0,29.97,NNW,343,3.0,6.0,96,0.00,CLR,,0.39,WeatherDisplay:10.37,2013-10-08 14:45:00,
2013-10-08 09:00:00,76.4,75.2,29.97,NNW,337,3.0,6.0,96,0.01,CLR,,0.40,WeatherDisplay:10.37,2013-10-08 15:00:00,
2013-10-08 09:15:00,76.3,74.8,29.97,North,355,5.0,7.0,95,0.00,CLR,,0.40,WeatherDisplay:10.37,2013-10-08 15:15:00,
2013-10-08 09:30:00,76.9,75.3,29.97,North,351,3.0,7.0,95,0.00,CLR,,0.40,WeatherDisplay:10.37,2013-10-08 15:30:00,
2013-10-08 09:45:00,77.7,76.2,29.97,NNW,346,3.0,6.0,95,0.00,CLR,,0.40,WeatherDisplay:10.37,2013-10-08 15:45:00,
2013-10-08 10:00:00,78.4,76.5,29.97,North,349,3.0,7.0,94,0.00,CLR,,0.40,WeatherDisplay:10.37,2013-10-08 16:00:00,
2013-10-08 10:15:00,79.2,76.7,29.97,North,350,3.0,7.0,92,0.00,CLR,,0.40,WeatherDisplay:10.37,2013-10-08 16:15:00,
2013-10-08 10:31:00,80.9,77.0,29.97,North,351,6.0,8.0,88,0.01,RA,,0.41,WeatherDisplay:10.37,2013-10-08 16:31:00,
2013-10-08 10:45:00,82.3,77.0,29.96,North,352,5.0,8.0,84,0.00,CLR,,0.41,WeatherDisplay:10.37,2013-10-08 16:45:00,
2013-10-08 11:00:00,84.2,78.4,29.96,North,6,2.0,8.0,83,0.00,CLR,,0.41,WeatherDisplay:10.37,2013-10-08 17:00:00,
2013-10-08 11:15:00,84.7,77.4,29.96,NNE,20,6.0,8.0,79,0.00,CLR,,0.41,WeatherDisplay:10.37,2013-10-08 17:15:00,
2013-10-08 11:30:00,83.7,77.2,29.95,NNW,345,7.0,9.0,81,0.00,CLR,,0.41,WeatherDisplay:10.37,2013-10-08 17:30:00,
2013-10-08 11:45:00,83.5,77.4,29.94,North,349,7.0,10.0,82,0.00,CLR,,0.41,WeatherDisplay:10.37,2013-10-08 17:45:00,
2013-10-08 12:00:00,83.5,77.4,29.93,North,352,9.0,13.0,82,0.00,CLR,,0.41,WeatherDisplay:10.37,2013-10-08 18:00:00,
2013-10-08 12:15:00,83.7,77.6,29.93,NNW,341,8.0,13.0,82,0.00,CLR,,0.41,WeatherDisplay:10.37,2013-10-08 18:15:00,
2013-10-08 12:30:00,83.6,77.9,29.92,NNW,348,8.0,13.0,83,0.00,CLR,,0.41,WeatherDisplay:10.37,2013-10-08 18:30:00,
2013-10-08 12:45:00,84.0,78.3,29.91,NNW,343,5.0,12.0,83,0.00,CLR,,0.41,WeatherDisplay:10.37,2013-10-08 18:45:00,
2013-10-08 13:00:00,84.1,78.4,29.90,North,354,8.0,12.0,83,0.00,CLR,,0.41,WeatherDisplay:10.37,2013-10-08 19:00:00,
2013-10-08 13:15:00,83.8,78.1,29.90,NNW,347,9.0,13.0,83,0.00,CLR,,0.41,WeatherDisplay:10.37,2013-10-08 19:15:00,
2013-10-08 13:30:00,84.5,78.7,29.89,NNE,28,5.0,12.0,83,0.00,CLR,,0.41,WeatherDisplay:10.37,2013-10-08 19:30:00,
2013-10-08 13:45:00,85.9,79.4,29.89,NE,56,5.0,12.0,81,0.00,CLR,,0.41,WeatherDisplay:10.37,2013-10-08 19:45:00,
2013-10-08 14:00:00,86.1,79.2,29.88,NNE,31,5.0,12.0,80,0.00,CLR,,0.41,WeatherDisplay:10.37,2013-10-08 20:00:00,
2013-10-08 14:15:00,86.3,78.6,29.88,NE,51,6.0,12.0,78,0.00,CLR,,0.41,WeatherDisplay:10.37,2013-10-08 20:15:00,
2013-10-08 14:31:00,86.3,79.0,29.88,NE,51,5.0,12.0,79,0.00,CLR,,0.41,WeatherDisplay:10.37,2013-10-08 20:31:00,
2013-10-08 14:45:00,85.1,78.3,29.88,NE,44,10.0,15.0,80,0.00,CLR,,0.41,WeatherDisplay:10.37,2013-10-08 20:45:00,
2013-10-08 15:00:00,82.6,77.6,29.87,ENE,77,12.0,20.0,85,0.00,CLR,,0.41,WeatherDisplay:10.37,2013-10-08 21:00:00,
2013-10-08 15:16:00,83.0,77.3,29.86,East,81,8.0,19.0,83,0.00,CLR,,0.41,WeatherDisplay:10.37,2013-10-08 21:16:00,
2013-10-08 15:30:00,83.4,77.7,29.87,ESE,115,12.0,15.0,83,0.00,CLR,,0.41,WeatherDisplay:10.37,2013-10-08 21:30:00,
2013-10-08 15:45:00,82.7,77.4,29.88,ESE,108,13.0,15.0,84,0.00,CLR,,0.41,WeatherDisplay:10.37,2013-10-08 21:45:00,
2013-10-08 16:00:00,82.6,77.3,29.88,ESE,120,14.0,16.0,84,0.00,CLR,,0.41,WeatherDisplay:10.37,2013-10-08 22:00:00,
2013-10-08 16:15:00,81.6,77.4,29.88,ESE,113,12.0,15.0,87,0.00,CLR,,0.41,WeatherDisplay:10.37,2013-10-08 22:15:00,
2013-10-08 16:26:00,81.4,77.1,29.88,ESE,110,8.0,14.0,87,0.00,CLR,,0.41,WeatherDisplay:10.37,2013-10-08 22:26:00,
2013-10-08 16:45:00,81.1,77.2,29.88,East,99,2.0,12.0,88,0.00,CLR,,0.41,WeatherDisplay:10.37,2013-10-08 22:45:00,
2013-10-08 17:00:00,80.8,76.6,29.88,East,98,6.0,10.0,87,0.00,CLR,,0.41,WeatherDisplay:10.37,2013-10-08 23:00:00,
2013-10-08 17:15:00,81.1,76.9,29.88,East,101,3.0,12.0,87,0.00,CLR,,0.41,WeatherDisplay:10.37,2013-10-08 23:15:00,
2013-10-08 17:30:00,81.2,77.0,29.88,East,101,3.0,10.0,87,0.00,CLR,,0.41,WeatherDisplay:10.37,2013-10-08 23:30:00,
2013-10-08 17:45:00,81.2,76.6,29.88,East,97,5.0,12.0,86,0.00,CLR,,0.41,WeatherDisplay:10.37,2013-10-08 23:45:00,
2013-10-08 18:01:00,81.4,76.8,29.89,East,93,8.0,10.0,86,0.00,CLR,,0.41,WeatherDisplay:10.37,2013-10-09 00:01:00,
2013-10-08 18:15:00,81.6,77.3,29.90,East,87,8.0,12.0,87,0.00,CLR,,0.41,WeatherDisplay:10.37,2013-10-09 00:15:00,
2013-10-08 18:31:00,81.6,77.4,29.91,East,93,7.0,12.0,87,0.00,CLR,,0.41,WeatherDisplay:10.37,2013-10-09 00:31:00,
2013-10-08 18:46:00,81.6,77.4,29.91,East,86,7.0,13.0,87,0.00,CLR,,0.41,WeatherDisplay:10.37,2013-10-09 00:46:00,
2013-10-08 19:00:00,81.8,77.5,29.91,East,90,6.0,13.0,87,0.00,CLR,,0.41,WeatherDisplay:10.37,2013-10-09 01:00:00,
2013-10-08 19:15:00,81.9,78.0,29.92,East,87,9.0,12.0,88,0.00,CLR,,0.41,WeatherDisplay:10.37,2013-10-09 01:15:00,
2013-10-08 19:30:00,82.0,77.7,29.92,East,89,7.0,12.0,87,0.00,CLR,,0.41,WeatherDisplay:10.37,2013-10-09 01:30:00,
2013-10-08 19:45:00,82.1,77.5,29.93,East,86,7.0,13.0,86,0.00,CLR,,0.41,WeatherDisplay:10.37,2013-10-09 01:45:00,
2013-10-08 20:00:00,82.5,77.5,29.93,East,99,8.0,13.0,85,0.00,CLR,,0.41,WeatherDisplay:10.37,2013-10-09 02:00:00,
2013-10-08 20:15:00,82.6,77.6,29.94,East,94,9.0,13.0,85,0.00,CLR,,0.41,WeatherDisplay:10.37,2013-10-09 02:15:00,
2013-10-08 20:30:00,82.6,77.6,29.94,East,88,8.0,13.0,85,0.00,CLR,,0.41,WeatherDisplay:10.37,2013-10-09 02:30:00,
2013-10-08 20:46:00,82.7,77.7,29.94,East,96,8.0,13.0,85,0.00,CLR,,0.41,WeatherDisplay:10.37,2013-10-09 02:46:00,
2013-10-08 21:00:00,82.8,78.1,29.94,ENE,76,8.0,12.0,86,0.00,CLR,,0.41,WeatherDisplay:10.37,2013-10-09 03:00:00,
2013-10-08 21:15:00,82.7,78.4,29.94,East,80,8.0,13.0,87,0.00,CLR,,0.41,WeatherDisplay:10.37,2013-10-09 03:15:00,
2013-10-08 21:31:00,82.8,78.5,29.94,East,90,9.0,13.0,87,0.00,CLR,,0.41,WeatherDisplay:10.37,2013-10-09 03:31:00,
2013-10-08 21:45:00,82.8,78.9,29.94,East,80,9.0,14.0,88,0.00,CLR,,0.41,WeatherDisplay:10.37,2013-10-09 03:45:00,
2013-10-08 22:01:00,82.8,79.2,29.94,East,92,6.0,13.0,89,0.00,CLR,,0.41,WeatherDisplay:10.37,2013-10-09 04:01:00,
2013-10-08 22:15:00,82.7,79.2,29.94,ENE,73,7.0,12.0,89,0.00,CLR,,0.41,WeatherDisplay:10.37,2013-10-09 04:15:00,
2013-10-08 22:31:00,82.7,78.8,29.94,ENE,72,5.0,10.0,88,0.00,CLR,,0.41,WeatherDisplay:10.37,2013-10-09 04:31:00,
2013-10-08 22:45:00,82.9,79.0,29.94,ENE,73,5.0,10.0,88,0.00,CLR,,0.41,WeatherDisplay:10.37,2013-10-09 04:45:00,
2013-10-08 23:00:00,83.2,78.9,29.93,East,83,7.0,13.0,87,0.00,CLR,,0.41,WeatherDisplay:10.37,2013-10-09 05:00:00,
2013-10-08 23:15:00,83.4,79.1,29.93,East,94,9.0,14.0,87,0.00,CLR,,0.41,WeatherDisplay:10.37,2013-10-09 05:15:00,
2013-10-08 23:31:00,83.5,79.3,29.93,East,89,7.0,14.0,87,0.00,CLR,,0.41,WeatherDisplay:10.37,2013-10-09 05:31:00,
2013-10-08 23:45:00,83.6,79.0,29.92,East,86,10.0,14.0,86,0.00,CLR,,0.41,WeatherDisplay:10.37,2013-10-09 05:45:00,